sensor_id;sensor_type;location;lat;lon;timestamp;temperature;humidity
11505;DHT22;5809;53.262;10.408;2022-09-12T00:04:53;13.00;99.90
11505;DHT22;5809;53.262;10.408;2022-09-12T00:17:10;13.00;99.90
11505;DHT22;5809;53.262;10.408;2022-09-12T00:22:04;12.90;99.90
11505;DHT22;5809;53.262;10.408;2022-09-12T00:27:00;12.80;99.90
11505;DHT22;5809;53.262;10.408;2022-09-12T00:31:54;12.60;99.90
11505;DHT22;5809;53.262;10.408;2022-09-12T00:36:48;12.50;99.90
11505;DHT22;5809;53.262;10.408;2022-09-12T00:41:43;12.50;99.90
11505;DHT22;5809;53.262;10.408;2022-09-12T00:44:44;12.40;99.90
11505;DHT22;5809;53.262;10.408;2022-09-12T00:52:13;12.30;99.90
11505;DHT22;5809;53.262;10.408;2022-09-12T00:54:44;12.30;99.90
11505;DHT22;5809;53.262;10.408;2022-09-12T00:57:13;12.30;99.90
11505;DHT22;5809;53.262;10.408;2022-09-12T01:02:12;12.20;99.90
11505;DHT22;5809;53.262;10.408;2022-09-12T01:07:07;12.20;99.90
11505;DHT22;5809;53.262;10.408;2022-09-12T01:12:03;12.10;99.90
11505;DHT22;5809;53.262;10.408;2022-09-12T01:19:43;11.90;99.90
11505;DHT22;5809;53.262;10.408;2022-09-12T01:27:41;11.90;99.90
11505;DHT22;5809;53.262;10.408;2022-09-12T01:43:16;11.80;99.90
11505;DHT22;5809;53.262;10.408;2022-09-12T02:00:53;11.70;99.90
11505;DHT22;5809;53.262;10.408;2022-09-12T02:03:24;11.70;99.90
11505;DHT22;5809;53.262;10.408;2022-09-12T02:10:55;11.60;99.90
11505;DHT22;5809;53.262;10.408;2022-09-12T02:13:26;11.60;99.90
11505;DHT22;5809;53.262;10.408;2022-09-12T02:18:27;11.60;99.90
11505;DHT22;5809;53.262;10.408;2022-09-12T02:55:41;11.00;99.90
11505;DHT22;5809;53.262;10.408;2022-09-12T03:03:29;11.10;99.90
11505;DHT22;5809;53.262;10.408;2022-09-12T03:13:58;11.00;99.90
11505;DHT22;5809;53.262;10.408;2022-09-12T03:16:38;11.00;99.90
11505;DHT22;5809;53.262;10.408;2022-09-12T03:19:14;11.00;99.90
11505;DHT22;5809;53.262;10.408;2022-09-12T03:34:16;10.90;99.90
11505;DHT22;5809;53.262;10.408;2022-09-12T03:39:11;10.90;99.90
11505;DHT22;5809;53.262;10.408;2022-09-12T03:46:33;10.80;99.90
11505;DHT22;5809;53.262;10.408;2022-09-12T03:51:27;10.80;99.90
11505;DHT22;5809;53.262;10.408;2022-09-12T04:16:09;11.00;99.90
11505;DHT22;5809;53.262;10.408;2022-09-12T04:26:01;11.00;99.90
11505;DHT22;5809;53.262;10.408;2022-09-12T04:28:31;11.00;99.90
11505;DHT22;5809;53.262;10.408;2022-09-12T04:36:02;10.90;99.90
11505;DHT22;5809;53.262;10.408;2022-09-12T04:38:29;10.90;99.90
11505;DHT22;5809;53.262;10.408;2022-09-12T04:43:23;10.90;99.90
11505;DHT22;5809;53.262;10.408;2022-09-12T04:45:50;10.90;99.90
11505;DHT22;5809;53.262;10.408;2022-09-12T04:50:45;10.80;99.90
11505;DHT22;5809;53.262;10.408;2022-09-12T04:53:12;10.70;99.90
11505;DHT22;5809;53.262;10.408;2022-09-12T04:58:06;10.60;99.90
11505;DHT22;5809;53.262;10.408;2022-09-12T05:03:00;10.70;99.90
11505;DHT22;5809;53.262;10.408;2022-09-12T05:25:12;11.40;99.90
11505;DHT22;5809;53.262;10.408;2022-09-12T05:32:35;12.10;99.90
11505;DHT22;5809;53.262;10.408;2022-09-12T05:37:29;12.40;99.90
11505;DHT22;5809;53.262;10.408;2022-09-12T05:39:57;12.60;99.90
11505;DHT22;5809;53.262;10.408;2022-09-12T05:44:51;12.80;99.90
11505;DHT22;5809;53.262;10.408;2022-09-12T05:57:13;13.20;99.90
11505;DHT22;5809;53.262;10.408;2022-09-12T06:02:08;12.90;99.90
11505;DHT22;5809;53.262;10.408;2022-09-12T06:04:35;12.70;99.90
11505;DHT22;5809;53.262;10.408;2022-09-12T06:09:30;13.00;99.90
11505;DHT22;5809;53.262;10.408;2022-09-12T06:26:45;15.20;99.90
11505;DHT22;5809;53.262;10.408;2022-09-12T06:29:12;15.40;99.90
11505;DHT22;5809;53.262;10.408;2022-09-12T06:36:39;16.30;99.90
11505;DHT22;5809;53.262;10.408;2022-09-12T06:44:02;16.90;99.90
11505;DHT22;5809;53.262;10.408;2022-09-12T06:48:59;17.40;99.90
11505;DHT22;5809;53.262;10.408;2022-09-12T06:51:27;17.80;99.90
11505;DHT22;5809;53.262;10.408;2022-09-12T07:08:44;18.90;99.90
11505;DHT22;5809;53.262;10.408;2022-09-12T07:11:12;18.20;99.90
11505;DHT22;5809;53.262;10.408;2022-09-12T07:13:40;18.00;99.90
11505;DHT22;5809;53.262;10.408;2022-09-12T07:18:36;18.00;99.90
11505;DHT22;5809;53.262;10.408;2022-09-12T07:38:28;19.20;99.90
11505;DHT22;5809;53.262;10.408;2022-09-12T07:45:54;21.00;99.90
11505;DHT22;5809;53.262;10.408;2022-09-12T07:48:21;21.10;99.90
11505;DHT22;5809;53.262;10.408;2022-09-12T07:53:23;21.40;99.90
11505;DHT22;5809;53.262;10.408;2022-09-12T07:55:53;21.10;99.90
11505;DHT22;5809;53.262;10.408;2022-09-12T07:58:21;21.20;99.90
11505;DHT22;5809;53.262;10.408;2022-09-12T08:00:48;21.00;99.90
11505;DHT22;5809;53.262;10.408;2022-09-12T08:03:16;21.30;99.90
11505;DHT22;5809;53.262;10.408;2022-09-12T08:10:38;23.30;99.90
11505;DHT22;5809;53.262;10.408;2022-09-12T08:13:05;23.10;99.90
11505;DHT22;5809;53.262;10.408;2022-09-12T08:15:35;24.00;99.90
11505;DHT22;5809;53.262;10.408;2022-09-12T08:18:02;24.40;99.90
11505;DHT22;5809;53.262;10.408;2022-09-12T08:20:29;23.50;99.90
11505;DHT22;5809;53.262;10.408;2022-09-12T08:30:20;23.40;99.90
11505;DHT22;5809;53.262;10.408;2022-09-12T08:35:16;24.20;99.90
11505;DHT22;5809;53.262;10.408;2022-09-12T08:47:46;22.20;99.90
11505;DHT22;5809;53.262;10.408;2022-09-12T08:50:17;22.20;99.90
11505;DHT22;5809;53.262;10.408;2022-09-12T08:55:26;23.40;99.90
11505;DHT22;5809;53.262;10.408;2022-09-12T09:00:21;22.00;99.90
11505;DHT22;5809;53.262;10.408;2022-09-12T09:05:49;21.80;99.90
11505;DHT22;5809;53.262;10.408;2022-09-12T09:08:34;22.20;99.90
11505;DHT22;5809;53.262;10.408;2022-09-12T09:11:12;22.30;99.90
11505;DHT22;5809;53.262;10.408;2022-09-12T09:24:02;22.40;99.90
11505;DHT22;5809;53.262;10.408;2022-09-12T09:26:38;22.80;99.90
11505;DHT22;5809;53.262;10.408;2022-09-12T09:34:13;25.00;99.90
11505;DHT22;5809;53.262;10.408;2022-09-12T09:41:58;23.00;99.90
11505;DHT22;5809;53.262;10.408;2022-09-12T09:49:26;24.50;99.90
11505;DHT22;5809;53.262;10.408;2022-09-12T09:51:56;25.70;99.90
11505;DHT22;5809;53.262;10.408;2022-09-12T10:09:25;24.30;99.90
11505;DHT22;5809;53.262;10.408;2022-09-12T10:14:32;24.80;99.90
11505;DHT22;5809;53.262;10.408;2022-09-12T10:19:33;25.30;99.90
11505;DHT22;5809;53.262;10.408;2022-09-12T10:24:34;24.60;99.90
11505;DHT22;5809;53.262;10.408;2022-09-12T10:34:40;24.60;99.90
11505;DHT22;5809;53.262;10.408;2022-09-12T10:39:38;25.30;99.90
11505;DHT22;5809;53.262;10.408;2022-09-12T10:49:46;24.30;99.90
11505;DHT22;5809;53.262;10.408;2022-09-12T11:10:49;25.00;99.90
11505;DHT22;5809;53.262;10.408;2022-09-12T11:13:34;25.10;99.90
11505;DHT22;5809;53.262;10.408;2022-09-12T11:16:15;25.60;99.90
11505;DHT22;5809;53.262;10.408;2022-09-12T11:19:12;26.60;99.90
11505;DHT22;5809;53.262;10.408;2022-09-12T11:21:56;25.30;99.90
11505;DHT22;5809;53.262;10.408;2022-09-12T11:24:42;24.70;99.90
11505;DHT22;5809;53.262;10.408;2022-09-12T11:27:27;24.90;99.90
11505;DHT22;5809;53.262;10.408;2022-09-12T11:29:58;24.90;99.90
11505;DHT22;5809;53.262;10.408;2022-09-12T11:32:44;25.50;99.90
11505;DHT22;5809;53.262;10.408;2022-09-12T11:35:19;25.40;99.90
11505;DHT22;5809;53.262;10.408;2022-09-12T11:38:17;25.60;99.90
11505;DHT22;5809;53.262;10.408;2022-09-12T11:40:49;25.50;99.90
11505;DHT22;5809;53.262;10.408;2022-09-12T11:43:28;26.20;99.90
11505;DHT22;5809;53.262;10.408;2022-09-12T11:46:00;27.40;99.90
11505;DHT22;5809;53.262;10.408;2022-09-12T11:48:37;25.80;99.90
11505;DHT22;5809;53.262;10.408;2022-09-12T11:51:14;25.90;99.90
11505;DHT22;5809;53.262;10.408;2022-09-12T11:53:43;26.80;99.90
11505;DHT22;5809;53.262;10.408;2022-09-12T11:56:14;27.40;99.90
11505;DHT22;5809;53.262;10.408;2022-09-12T11:58:48;27.40;99.90
11505;DHT22;5809;53.262;10.408;2022-09-12T12:01:19;27.00;99.90
11505;DHT22;5809;53.262;10.408;2022-09-12T12:03:49;26.80;99.90
11505;DHT22;5809;53.262;10.408;2022-09-12T12:06:20;26.50;99.90
11505;DHT22;5809;53.262;10.408;2022-09-12T12:08:48;27.10;99.90
11505;DHT22;5809;53.262;10.408;2022-09-12T12:11:26;26.20;99.90
11505;DHT22;5809;53.262;10.408;2022-09-12T12:13:57;26.20;99.90
11505;DHT22;5809;53.262;10.408;2022-09-12T12:16:27;25.60;99.90
11505;DHT22;5809;53.262;10.408;2022-09-12T12:18:57;25.90;99.90
11505;DHT22;5809;53.262;10.408;2022-09-12T12:21:35;25.60;99.90
11505;DHT22;5809;53.262;10.408;2022-09-12T12:24:19;26.00;99.90
11505;DHT22;5809;53.262;10.408;2022-09-12T12:26:58;26.30;99.90
11505;DHT22;5809;53.262;10.408;2022-09-12T12:29:38;25.80;99.90
11505;DHT22;5809;53.262;10.408;2022-09-12T12:32:23;24.60;99.90
11505;DHT22;5809;53.262;10.408;2022-09-12T12:37:53;23.70;99.90
11505;DHT22;5809;53.262;10.408;2022-09-12T12:40:25;23.70;99.90
11505;DHT22;5809;53.262;10.408;2022-09-12T12:43:03;24.30;99.90
11505;DHT22;5809;53.262;10.408;2022-09-12T12:46:02;24.00;99.90
11505;DHT22;5809;53.262;10.408;2022-09-12T12:48:32;24.60;99.90
11505;DHT22;5809;53.262;10.408;2022-09-12T12:51:32;24.50;99.90
11505;DHT22;5809;53.262;10.408;2022-09-12T12:54:03;25.20;99.90
11505;DHT22;5809;53.262;10.408;2022-09-12T12:56:38;25.20;99.90
11505;DHT22;5809;53.262;10.408;2022-09-12T12:59:15;24.90;99.90
11505;DHT22;5809;53.262;10.408;2022-09-12T13:01:50;24.50;99.90
11505;DHT22;5809;53.262;10.408;2022-09-12T13:04:20;24.50;99.90
11505;DHT22;5809;53.262;10.408;2022-09-12T13:06:57;24.70;99.90
11505;DHT22;5809;53.262;10.408;2022-09-12T13:09:31;24.80;99.90
11505;DHT22;5809;53.262;10.408;2022-09-12T13:12:02;24.50;99.90
11505;DHT22;5809;53.262;10.408;2022-09-12T13:14:49;24.70;99.90
11505;DHT22;5809;53.262;10.408;2022-09-12T13:17:22;24.80;99.90
11505;DHT22;5809;53.262;10.408;2022-09-12T13:19:53;24.60;99.90
11505;DHT22;5809;53.262;10.408;2022-09-12T13:22:39;24.70;99.90
11505;DHT22;5809;53.262;10.408;2022-09-12T13:25:28;24.90;99.90
11505;DHT22;5809;53.262;10.408;2022-09-12T13:28:04;25.80;99.90
11505;DHT22;5809;53.262;10.408;2022-09-12T13:30:33;25.90;99.90
11505;DHT22;5809;53.262;10.408;2022-09-12T13:33:10;25.80;99.90
11505;DHT22;5809;53.262;10.408;2022-09-12T13:35:53;25.80;99.90
11505;DHT22;5809;53.262;10.408;2022-09-12T13:38:32;25.90;99.90
11505;DHT22;5809;53.262;10.408;2022-09-12T13:41:15;26.00;99.90
11505;DHT22;5809;53.262;10.408;2022-09-12T13:43:45;26.30;99.90
11505;DHT22;5809;53.262;10.408;2022-09-12T13:46:16;26.70;99.90
11505;DHT22;5809;53.262;10.408;2022-09-12T13:48:46;27.30;99.90
11505;DHT22;5809;53.262;10.408;2022-09-12T13:51:21;28.20;99.90
11505;DHT22;5809;53.262;10.408;2022-09-12T13:53:50;27.50;99.90
11505;DHT22;5809;53.262;10.408;2022-09-12T13:56:20;26.90;99.90
11505;DHT22;5809;53.262;10.408;2022-09-12T13:58:52;25.50;99.90
11505;DHT22;5809;53.262;10.408;2022-09-12T14:01:21;25.50;99.90
11505;DHT22;5809;53.262;10.408;2022-09-12T14:03:51;25.50;99.90
11505;DHT22;5809;53.262;10.408;2022-09-12T14:06:42;25.80;99.90
11505;DHT22;5809;53.262;10.408;2022-09-12T14:09:13;26.50;99.90
11505;DHT22;5809;53.262;10.408;2022-09-12T14:11:41;26.90;99.90
11505;DHT22;5809;53.262;10.408;2022-09-12T14:14:27;26.80;99.90
11505;DHT22;5809;53.262;10.408;2022-09-12T14:16:56;27.90;99.90
11505;DHT22;5809;53.262;10.408;2022-09-12T14:19:25;27.80;99.90
11505;DHT22;5809;53.262;10.408;2022-09-12T14:21:54;27.20;99.90
11505;DHT22;5809;53.262;10.408;2022-09-12T14:24:22;26.70;99.90
11505;DHT22;5809;53.262;10.408;2022-09-12T14:26:51;26.00;99.90
11505;DHT22;5809;53.262;10.408;2022-09-12T14:29:19;24.70;99.90
11505;DHT22;5809;53.262;10.408;2022-09-12T14:32:00;23.90;99.90
11505;DHT22;5809;53.262;10.408;2022-09-12T14:34:29;24.30;99.90
11505;DHT22;5809;53.262;10.408;2022-09-12T14:36:57;24.30;99.90
11505;DHT22;5809;53.262;10.408;2022-09-12T14:39:28;23.60;99.90
11505;DHT22;5809;53.262;10.408;2022-09-12T14:42:02;23.70;99.90
11505;DHT22;5809;53.262;10.408;2022-09-12T14:44:29;23.90;99.90
11505;DHT22;5809;53.262;10.408;2022-09-12T14:47:00;24.00;99.90
11505;DHT22;5809;53.262;10.408;2022-09-12T14:49:31;24.30;99.90
11505;DHT22;5809;53.262;10.408;2022-09-12T14:52:02;24.50;99.90
11505;DHT22;5809;53.262;10.408;2022-09-12T14:54:37;25.20;99.90
11505;DHT22;5809;53.262;10.408;2022-09-12T14:57:30;25.90;99.90
11505;DHT22;5809;53.262;10.408;2022-09-12T15:00:10;26.60;99.90
11505;DHT22;5809;53.262;10.408;2022-09-12T15:02:41;27.20;99.90
11505;DHT22;5809;53.262;10.408;2022-09-12T15:05:24;25.50;99.90
11505;DHT22;5809;53.262;10.408;2022-09-12T15:07:54;26.10;99.90
11505;DHT22;5809;53.262;10.408;2022-09-12T15:10:24;26.40;99.90
11505;DHT22;5809;53.262;10.408;2022-09-12T15:13:13;27.60;99.90
11505;DHT22;5809;53.262;10.408;2022-09-12T15:15:42;28.10;99.90
11505;DHT22;5809;53.262;10.408;2022-09-12T15:18:10;28.30;98.70
11505;DHT22;5809;53.262;10.408;2022-09-12T15:20:41;27.80;98.50
11505;DHT22;5809;53.262;10.408;2022-09-12T15:23:14;26.70;99.90
11505;DHT22;5809;53.262;10.408;2022-09-12T15:25:43;25.60;99.90
11505;DHT22;5809;53.262;10.408;2022-09-12T15:28:17;24.40;99.90
11505;DHT22;5809;53.262;10.408;2022-09-12T15:30:45;23.90;99.90
11505;DHT22;5809;53.262;10.408;2022-09-12T15:33:14;24.00;99.90
11505;DHT22;5809;53.262;10.408;2022-09-12T15:35:42;23.60;99.90
11505;DHT22;5809;53.262;10.408;2022-09-12T15:38:09;23.70;99.90
11505;DHT22;5809;53.262;10.408;2022-09-12T15:40:36;23.60;99.90
11505;DHT22;5809;53.262;10.408;2022-09-12T15:43:03;23.50;99.90
11505;DHT22;5809;53.262;10.408;2022-09-12T15:45:32;23.20;99.90
11505;DHT22;5809;53.262;10.408;2022-09-12T15:48:00;23.00;99.90
11505;DHT22;5809;53.262;10.408;2022-09-12T15:50:28;22.30;99.90
11505;DHT22;5809;53.262;10.408;2022-09-12T15:52:57;22.20;99.90
11505;DHT22;5809;53.262;10.408;2022-09-12T15:55:27;22.10;99.90
11505;DHT22;5809;53.262;10.408;2022-09-12T15:57:54;22.50;99.90
11505;DHT22;5809;53.262;10.408;2022-09-12T16:00:21;22.50;99.90
11505;DHT22;5809;53.262;10.408;2022-09-12T16:02:50;22.50;99.90
11505;DHT22;5809;53.262;10.408;2022-09-12T16:05:19;22.70;99.90
11505;DHT22;5809;53.262;10.408;2022-09-12T16:07:47;22.80;99.90
11505;DHT22;5809;53.262;10.408;2022-09-12T16:10:19;22.80;99.90
11505;DHT22;5809;53.262;10.408;2022-09-12T16:12:46;22.80;99.90
11505;DHT22;5809;53.262;10.408;2022-09-12T16:15:15;22.40;99.90
11505;DHT22;5809;53.262;10.408;2022-09-12T16:17:42;22.50;99.90
11505;DHT22;5809;53.262;10.408;2022-09-12T16:20:10;22.40;99.90
11505;DHT22;5809;53.262;10.408;2022-09-12T16:22:37;22.40;99.90
11505;DHT22;5809;53.262;10.408;2022-09-12T16:25:05;22.20;99.90
11505;DHT22;5809;53.262;10.408;2022-09-12T16:27:34;21.90;99.90
11505;DHT22;5809;53.262;10.408;2022-09-12T16:30:03;21.80;99.90
11505;DHT22;5809;53.262;10.408;2022-09-12T16:32:30;21.80;99.90
11505;DHT22;5809;53.262;10.408;2022-09-12T16:34:57;21.80;99.90
11505;DHT22;5809;53.262;10.408;2022-09-12T16:37:24;21.70;99.90
11505;DHT22;5809;53.262;10.408;2022-09-12T16:39:51;21.60;99.90
11505;DHT22;5809;53.262;10.408;2022-09-12T16:42:18;21.40;99.90
11505;DHT22;5809;53.262;10.408;2022-09-12T16:44:46;21.40;99.90
11505;DHT22;5809;53.262;10.408;2022-09-12T16:47:14;21.40;99.90
11505;DHT22;5809;53.262;10.408;2022-09-12T16:49:41;21.30;99.90
11505;DHT22;5809;53.262;10.408;2022-09-12T16:52:08;21.30;99.90
11505;DHT22;5809;53.262;10.408;2022-09-12T16:54:36;21.30;99.90
11505;DHT22;5809;53.262;10.408;2022-09-12T16:57:03;21.20;99.90
11505;DHT22;5809;53.262;10.408;2022-09-12T16:59:31;21.10;99.90
11505;DHT22;5809;53.262;10.408;2022-09-12T17:01:59;21.00;99.90
11505;DHT22;5809;53.262;10.408;2022-09-12T17:04:26;21.00;99.90
11505;DHT22;5809;53.262;10.408;2022-09-12T17:06:53;20.90;99.90
11505;DHT22;5809;53.262;10.408;2022-09-12T17:09:22;20.80;99.90
11505;DHT22;5809;53.262;10.408;2022-09-12T17:11:49;20.70;99.90
11505;DHT22;5809;53.262;10.408;2022-09-12T17:14:17;20.70;99.90
11505;DHT22;5809;53.262;10.408;2022-09-12T17:16:45;20.60;99.90
11505;DHT22;5809;53.262;10.408;2022-09-12T17:19:15;20.50;99.90
11505;DHT22;5809;53.262;10.408;2022-09-12T17:21:43;20.50;99.90
11505;DHT22;5809;53.262;10.408;2022-09-12T17:24:11;20.40;99.90
11505;DHT22;5809;53.262;10.408;2022-09-12T17:26:38;20.40;99.90
11505;DHT22;5809;53.262;10.408;2022-09-12T17:29:05;20.30;99.90
11505;DHT22;5809;53.262;10.408;2022-09-12T17:31:32;20.20;99.90
11505;DHT22;5809;53.262;10.408;2022-09-12T17:34:00;20.20;99.90
11505;DHT22;5809;53.262;10.408;2022-09-12T17:36:29;20.10;99.90
11505;DHT22;5809;53.262;10.408;2022-09-12T17:38:57;20.00;99.90
11505;DHT22;5809;53.262;10.408;2022-09-12T17:41:25;20.00;99.90
11505;DHT22;5809;53.262;10.408;2022-09-12T17:43:54;19.90;99.90
11505;DHT22;5809;53.262;10.408;2022-09-12T17:46:22;19.70;99.90
11505;DHT22;5809;53.262;10.408;2022-09-12T17:48:50;19.60;99.90
11505;DHT22;5809;53.262;10.408;2022-09-12T17:51:18;19.50;99.90
11505;DHT22;5809;53.262;10.408;2022-09-12T17:53:46;19.60;99.90
11505;DHT22;5809;53.262;10.408;2022-09-12T17:56:13;19.50;99.90
11505;DHT22;5809;53.262;10.408;2022-09-12T17:58:41;19.50;99.90
11505;DHT22;5809;53.262;10.408;2022-09-12T18:01:11;19.50;99.90
11505;DHT22;5809;53.262;10.408;2022-09-12T18:03:57;19.30;99.90
11505;DHT22;5809;53.262;10.408;2022-09-12T18:06:25;19.30;99.90
11505;DHT22;5809;53.262;10.408;2022-09-12T18:08:53;19.20;99.90
11505;DHT22;5809;53.262;10.408;2022-09-12T18:11:20;19.10;99.90
11505;DHT22;5809;53.262;10.408;2022-09-12T18:13:47;19.10;99.90
11505;DHT22;5809;53.262;10.408;2022-09-12T18:16:14;19.10;99.90
11505;DHT22;5809;53.262;10.408;2022-09-12T18:18:41;19.00;99.90
11505;DHT22;5809;53.262;10.408;2022-09-12T18:21:10;18.90;99.90
11505;DHT22;5809;53.262;10.408;2022-09-12T18:23:37;18.90;99.90
11505;DHT22;5809;53.262;10.408;2022-09-12T18:26:07;18.90;99.90
11505;DHT22;5809;53.262;10.408;2022-09-12T18:28:36;18.80;99.90
11505;DHT22;5809;53.262;10.408;2022-09-12T18:31:04;18.80;99.90
11505;DHT22;5809;53.262;10.408;2022-09-12T18:33:35;18.70;99.90
11505;DHT22;5809;53.262;10.408;2022-09-12T18:36:03;18.70;99.90
11505;DHT22;5809;53.262;10.408;2022-09-12T18:38:30;18.60;99.90
11505;DHT22;5809;53.262;10.408;2022-09-12T18:41:01;18.60;99.90
11505;DHT22;5809;53.262;10.408;2022-09-12T18:43:30;18.60;99.90
11505;DHT22;5809;53.262;10.408;2022-09-12T18:46:01;18.50;99.90
11505;DHT22;5809;53.262;10.408;2022-09-12T18:48:29;18.50;99.90
11505;DHT22;5809;53.262;10.408;2022-09-12T18:51:01;18.40;99.90
11505;DHT22;5809;53.262;10.408;2022-09-12T18:53:30;18.40;99.90
11505;DHT22;5809;53.262;10.408;2022-09-12T18:56:01;18.30;99.90
11505;DHT22;5809;53.262;10.408;2022-09-12T18:58:30;18.30;99.90
11505;DHT22;5809;53.262;10.408;2022-09-12T19:00:57;18.20;99.90
11505;DHT22;5809;53.262;10.408;2022-09-12T19:03:24;18.10;99.90
11505;DHT22;5809;53.262;10.408;2022-09-12T19:05:51;18.10;99.90
11505;DHT22;5809;53.262;10.408;2022-09-12T19:10:53;18.00;99.90
11505;DHT22;5809;53.262;10.408;2022-09-12T19:13:20;18.00;99.90
11505;DHT22;5809;53.262;10.408;2022-09-12T19:15:49;17.90;99.90
11505;DHT22;5809;53.262;10.408;2022-09-12T19:18:16;20.90;99.90
11505;DHT22;5809;53.262;10.408;2022-09-12T19:20:43;17.80;99.90
11505;DHT22;5809;53.262;10.408;2022-09-12T19:23:10;17.80;99.90
11505;DHT22;5809;53.262;10.408;2022-09-12T19:25:37;17.80;99.90
11505;DHT22;5809;53.262;10.408;2022-09-12T19:28:04;17.70;99.90
11505;DHT22;5809;53.262;10.408;2022-09-12T19:30:32;17.60;99.90
11505;DHT22;5809;53.262;10.408;2022-09-12T19:33:00;17.60;99.90
11505;DHT22;5809;53.262;10.408;2022-09-12T19:35:27;17.60;99.90
11505;DHT22;5809;53.262;10.408;2022-09-12T19:37:54;17.50;99.90
11505;DHT22;5809;53.262;10.408;2022-09-12T19:40:21;17.50;99.90
11505;DHT22;5809;53.262;10.408;2022-09-12T19:42:48;17.40;99.90
11505;DHT22;5809;53.262;10.408;2022-09-12T19:45:15;17.40;99.90
11505;DHT22;5809;53.262;10.408;2022-09-12T19:50:10;17.40;99.90
11505;DHT22;5809;53.262;10.408;2022-09-12T19:52:37;17.30;99.90
11505;DHT22;5809;53.262;10.408;2022-09-12T19:55:05;17.30;99.90
11505;DHT22;5809;53.262;10.408;2022-09-12T19:57:32;17.20;99.90
11505;DHT22;5809;53.262;10.408;2022-09-12T19:59:59;17.20;99.90
11505;DHT22;5809;53.262;10.408;2022-09-12T20:02:26;17.10;99.90
11505;DHT22;5809;53.262;10.408;2022-09-12T20:04:54;17.10;99.90
11505;DHT22;5809;53.262;10.408;2022-09-12T20:07:22;17.10;99.90
11505;DHT22;5809;53.262;10.408;2022-09-12T20:09:49;17.00;99.90
11505;DHT22;5809;53.262;10.408;2022-09-12T20:12:16;17.00;99.90
11505;DHT22;5809;53.262;10.408;2022-09-12T20:14:43;17.00;99.90
11505;DHT22;5809;53.262;10.408;2022-09-12T20:17:10;17.00;99.90
11505;DHT22;5809;53.262;10.408;2022-09-12T20:19:37;17.00;99.90
11505;DHT22;5809;53.262;10.408;2022-09-12T20:24:33;17.00;99.90
11505;DHT22;5809;53.262;10.408;2022-09-12T20:29:27;16.90;99.90
11505;DHT22;5809;53.262;10.408;2022-09-12T20:31:54;16.90;99.90
11505;DHT22;5809;53.262;10.408;2022-09-12T20:34:21;16.90;99.90
11505;DHT22;5809;53.262;10.408;2022-09-12T20:39:17;16.90;99.90
11505;DHT22;5809;53.262;10.408;2022-09-12T20:41:46;16.80;99.90
11505;DHT22;5809;53.262;10.408;2022-09-12T20:44:14;16.80;99.90
11505;DHT22;5809;53.262;10.408;2022-09-12T20:49:08;16.60;99.90
11505;DHT22;5809;53.262;10.408;2022-09-12T20:54:04;16.50;99.90
11505;DHT22;5809;53.262;10.408;2022-09-12T20:56:33;16.50;99.90
11505;DHT22;5809;53.262;10.408;2022-09-12T20:59:02;17.70;99.90
11505;DHT22;5809;53.262;10.408;2022-09-12T21:01:30;16.40;99.90
11505;DHT22;5809;53.262;10.408;2022-09-12T21:03:58;16.40;99.90
11505;DHT22;5809;53.262;10.408;2022-09-12T21:06:25;16.40;99.90
11505;DHT22;5809;53.262;10.408;2022-09-12T21:08:53;16.40;99.90
11505;DHT22;5809;53.262;10.408;2022-09-12T21:11:22;16.30;99.90
11505;DHT22;5809;53.262;10.408;2022-09-12T21:13:50;16.30;99.90
11505;DHT22;5809;53.262;10.408;2022-09-12T21:16:20;15.80;99.90
11505;DHT22;5809;53.262;10.408;2022-09-12T21:18:51;16.20;99.90
11505;DHT22;5809;53.262;10.408;2022-09-12T21:21:20;16.20;99.90
11505;DHT22;5809;53.262;10.408;2022-09-12T21:23:47;16.10;99.90
11505;DHT22;5809;53.262;10.408;2022-09-12T21:26:15;16.10;99.90
11505;DHT22;5809;53.262;10.408;2022-09-12T21:28:42;16.10;99.90
11505;DHT22;5809;53.262;10.408;2022-09-12T21:31:09;16.00;99.90
11505;DHT22;5809;53.262;10.408;2022-09-12T21:33:38;13.30;99.90
11505;DHT22;5809;53.262;10.408;2022-09-12T21:36:05;16.00;99.90
11505;DHT22;5809;53.262;10.408;2022-09-12T21:38:33;15.90;99.90
11505;DHT22;5809;53.262;10.408;2022-09-12T21:41:04;15.90;99.90
11505;DHT22;5809;53.262;10.408;2022-09-12T21:43:32;15.80;99.90
11505;DHT22;5809;53.262;10.408;2022-09-12T21:45:59;15.80;99.90
11505;DHT22;5809;53.262;10.408;2022-09-12T21:48:27;15.80;99.90
11505;DHT22;5809;53.262;10.408;2022-09-12T21:50:55;15.80;99.90
11505;DHT22;5809;53.262;10.408;2022-09-12T21:53:23;15.70;99.90
11505;DHT22;5809;53.262;10.408;2022-09-12T21:55:50;15.70;99.90
11505;DHT22;5809;53.262;10.408;2022-09-12T21:58:17;15.70;99.90
11505;DHT22;5809;53.262;10.408;2022-09-12T22:00:44;15.70;99.90
11505;DHT22;5809;53.262;10.408;2022-09-12T22:03:11;15.70;99.90
11505;DHT22;5809;53.262;10.408;2022-09-12T22:05:39;15.70;99.90
11505;DHT22;5809;53.262;10.408;2022-09-12T22:08:07;15.80;99.90
11505;DHT22;5809;53.262;10.408;2022-09-12T22:10:35;15.90;99.90
11505;DHT22;5809;53.262;10.408;2022-09-12T22:13:03;15.90;99.90
11505;DHT22;5809;53.262;10.408;2022-09-12T22:15:30;15.90;99.90
11505;DHT22;5809;53.262;10.408;2022-09-12T22:17:57;15.90;99.90
11505;DHT22;5809;53.262;10.408;2022-09-12T22:20:24;15.90;99.90
11505;DHT22;5809;53.262;10.408;2022-09-12T22:22:51;15.80;99.90
11505;DHT22;5809;53.262;10.408;2022-09-12T22:25:37;15.80;99.90
11505;DHT22;5809;53.262;10.408;2022-09-12T22:28:04;20.10;99.90
11505;DHT22;5809;53.262;10.408;2022-09-12T22:30:31;15.80;99.90
11505;DHT22;5809;53.262;10.408;2022-09-12T22:32:58;15.70;99.90
11505;DHT22;5809;53.262;10.408;2022-09-12T22:35:25;15.60;99.90
11505;DHT22;5809;53.262;10.408;2022-09-12T22:37:52;15.60;99.90
11505;DHT22;5809;53.262;10.408;2022-09-12T22:40:19;15.60;99.90
11505;DHT22;5809;53.262;10.408;2022-09-12T22:42:50;15.60;99.90
11505;DHT22;5809;53.262;10.408;2022-09-12T22:45:17;15.50;99.90
11505;DHT22;5809;53.262;10.408;2022-09-12T22:47:44;15.40;99.90
11505;DHT22;5809;53.262;10.408;2022-09-12T22:50:11;15.40;99.90
11505;DHT22;5809;53.262;10.408;2022-09-12T22:52:38;15.40;99.90
11505;DHT22;5809;53.262;10.408;2022-09-12T22:55:06;15.40;99.90
11505;DHT22;5809;53.262;10.408;2022-09-12T22:57:33;15.40;99.90
11505;DHT22;5809;53.262;10.408;2022-09-12T23:00:03;15.30;99.90
11505;DHT22;5809;53.262;10.408;2022-09-12T23:02:32;15.30;99.90
11505;DHT22;5809;53.262;10.408;2022-09-12T23:04:59;15.30;99.90
11505;DHT22;5809;53.262;10.408;2022-09-12T23:07:26;15.40;99.90
11505;DHT22;5809;53.262;10.408;2022-09-12T23:09:53;15.40;99.90
11505;DHT22;5809;53.262;10.408;2022-09-12T23:12:20;15.40;99.90
11505;DHT22;5809;53.262;10.408;2022-09-12T23:17:15;15.40;99.90
11505;DHT22;5809;53.262;10.408;2022-09-12T23:19:42;15.40;99.90
11505;DHT22;5809;53.262;10.408;2022-09-12T23:22:09;15.40;99.90